Terminal Aerodrome Forecast
Issued by NWS

Home | Current Version | Previous Version | Text Only | Print | Product List | Glossary On
Versions: 1 2 3 4 5 6 7 8 9 10 11 12
000
FTUS43 KFGF 281136
TAFTVF
TAF
KTVF 281136Z 2812/0112 02010KT P6SM BKN040
     FM010700 01005KT P6SM BKN025
     FM011000 03005KT P6SM BKN015=

USA.gov is the U.S. government's official web portal to all federal, state and local government web resources and services.